Current Weather

Reyes

Reyes, Bolivia (SLRY)

Report from: Friday, December 2, 2022 4:00 PM -04
Current time: Sunday, December 4, 2022 7:08 AM -04

Nearby weather
Weather history
Weather forecast

Temperature28.0°C (82.4°F)
Heat index30.4°C (86.6°F)
Dew point21.0°C (69.8°F)
Winds Calm
Visibility6.2 mi. (10 km)
Clouds Few clouds 1,500 ft. (457 m)
Ceiling: Overcast 20,000 ft. (6,096 m)
Altimeter29.74 in.Hg (1007 mB)
Relative humidity66 %
Density altitude2,042 ft. (622 m)
Flight conditions Visual Meteorological Conditions
Raw dataSLRY 022000Z 00000KT 9999 FEW015 OVC200 28/21 Q1007
An error has occurred. This application may no longer respond until reloaded. Reload 🗙